sensor_id;sensor_type;location;lat;lon;timestamp;pressure;altitude;pressure_sealevel;temperature;humidity
55424;BME280;41294;42.666;23.350;2023-11-21T00:01:26;94745.63;;;4.77;97.70
55424;BME280;41294;42.666;23.350;2023-11-21T00:03:52;94732.97;;;4.75;97.95
55424;BME280;41294;42.666;23.350;2023-11-21T00:06:20;94738.78;;;4.83;98.57
55424;BME280;41294;42.666;23.350;2023-11-21T00:08:45;94733.22;;;4.81;97.62
55424;BME280;41294;42.666;23.350;2023-11-21T00:11:11;94738.09;;;4.79;98.38
55424;BME280;41294;42.666;23.350;2023-11-21T00:13:37;94735.84;;;4.96;97.33
55424;BME280;41294;42.666;23.350;2023-11-21T00:16:03;94738.81;;;4.98;97.59
55424;BME280;41294;42.666;23.350;2023-11-21T00:18:29;94733.59;;;4.98;96.82
55424;BME280;41294;42.666;23.350;2023-11-21T00:20:55;94739.81;;;5.04;96.98
55424;BME280;41294;42.666;23.350;2023-11-21T00:23:20;94741.03;;;5.00;96.48
55424;BME280;41294;42.666;23.350;2023-11-21T00:25:45;94736.53;;;5.00;96.59
55424;BME280;41294;42.666;23.350;2023-11-21T00:28:11;94731.13;;;4.91;97.24
55424;BME280;41294;42.666;23.350;2023-11-21T00:30:36;94725.34;;;4.84;98.00
55424;BME280;41294;42.666;23.350;2023-11-21T00:33:02;94725.75;;;4.83;98.25
55424;BME280;41294;42.666;23.350;2023-11-21T00:35:27;94725.41;;;4.81;98.19
55424;BME280;41294;42.666;23.350;2023-11-21T00:37:52;94729.34;;;4.88;98.22
55424;BME280;41294;42.666;23.350;2023-11-21T00:40:18;94728.53;;;4.91;98.28
55424;BME280;41294;42.666;23.350;2023-11-21T00:42:47;94722.97;;;4.89;98.28
55424;BME280;41294;42.666;23.350;2023-11-21T00:45:12;94727.56;;;4.86;98.81
55424;BME280;41294;42.666;23.350;2023-11-21T00:47:38;94728.59;;;4.88;98.62
55424;BME280;41294;42.666;23.350;2023-11-21T00:50:04;94731.28;;;4.85;98.39
55424;BME280;41294;42.666;23.350;2023-11-21T00:52:31;94733.91;;;4.85;98.57
55424;BME280;41294;42.666;23.350;2023-11-21T00:54:57;94728.94;;;4.90;98.34
55424;BME280;41294;42.666;23.350;2023-11-21T00:57:26;94731.28;;;4.85;98.67
55424;BME280;41294;42.666;23.350;2023-11-21T00:59:51;94724.69;;;4.80;98.65
55424;BME280;41294;42.666;23.350;2023-11-21T01:02:18;94715.94;;;4.71;99.32
55424;BME280;41294;42.666;23.350;2023-11-21T01:04:43;94713.97;;;4.59;99.87
55424;BME280;41294;42.666;23.350;2023-11-21T01:07:09;94716.25;;;4.57;99.96
55424;BME280;41294;42.666;23.350;2023-11-21T01:09:34;94721.59;;;4.50;100.00
55424;BME280;41294;42.666;23.350;2023-11-21T01:12:00;94716.66;;;4.55;99.77
55424;BME280;41294;42.666;23.350;2023-11-21T01:14:25;94715.44;;;4.60;99.26
55424;BME280;41294;42.666;23.350;2023-11-21T01:16:52;94704.03;;;4.70;98.88
55424;BME280;41294;42.666;23.350;2023-11-21T01:19:17;94710.25;;;4.60;98.93
55424;BME280;41294;42.666;23.350;2023-11-21T01:21:43;94716.97;;;4.57;99.68
55424;BME280;41294;42.666;23.350;2023-11-21T01:24:08;94717.53;;;4.49;99.45
55424;BME280;41294;42.666;23.350;2023-11-21T01:26:34;94718.50;;;4.55;98.98
55424;BME280;41294;42.666;23.350;2023-11-21T01:28:59;94724.03;;;4.41;99.92
55424;BME280;41294;42.666;23.350;2023-11-21T01:31:25;94726.06;;;4.49;99.64
55424;BME280;41294;42.666;23.350;2023-11-21T01:33:54;94715.66;;;4.49;99.23
55424;BME280;41294;42.666;23.350;2023-11-21T01:36:20;94707.19;;;4.45;99.23
55424;BME280;41294;42.666;23.350;2023-11-21T01:38:46;94707.78;;;4.33;99.12
55424;BME280;41294;42.666;23.350;2023-11-21T01:41:13;94720.53;;;4.28;99.20
55424;BME280;41294;42.666;23.350;2023-11-21T01:43:39;94732.44;;;4.29;99.92
55424;BME280;41294;42.666;23.350;2023-11-21T01:46:05;94730.16;;;4.31;99.46
55424;BME280;41294;42.666;23.350;2023-11-21T01:48:31;94724.63;;;4.29;99.24
55424;BME280;41294;42.666;23.350;2023-11-21T01:50:58;94718.56;;;4.16;99.94
55424;BME280;41294;42.666;23.350;2023-11-21T01:53:26;94708.66;;;4.07;100.00
55424;BME280;41294;42.666;23.350;2023-11-21T01:55:55;94703.72;;;4.13;100.00
55424;BME280;41294;42.666;23.350;2023-11-21T01:58:22;94708.94;;;4.13;100.00
55424;BME280;41294;42.666;23.350;2023-11-21T02:00:47;94713.53;;;4.05;100.00
55424;BME280;41294;42.666;23.350;2023-11-21T02:03:16;94713.16;;;4.07;100.00
55424;BME280;41294;42.666;23.350;2023-11-21T02:05:42;94712.81;;;4.05;100.00
55424;BME280;41294;42.666;23.350;2023-11-21T02:08:07;94713.53;;;4.05;100.00
55424;BME280;41294;42.666;23.350;2023-11-21T02:10:34;94715.41;;;4.05;100.00
55424;BME280;41294;42.666;23.350;2023-11-21T02:13:02;94715.28;;;4.12;99.66
55424;BME280;41294;42.666;23.350;2023-11-21T02:15:28;94717.88;;;4.12;99.53
55424;BME280;41294;42.666;23.350;2023-11-21T02:17:54;94712.25;;;4.13;99.13
55424;BME280;41294;42.666;23.350;2023-11-21T02:20:23;94711.47;;;3.97;100.00
55424;BME280;41294;42.666;23.350;2023-11-21T02:22:53;94713.75;;;3.95;100.00
55424;BME280;41294;42.666;23.350;2023-11-21T02:25:27;94701.72;;;4.01;99.70
55424;BME280;41294;42.666;23.350;2023-11-21T02:27:56;94708.88;;;3.97;100.00
55424;BME280;41294;42.666;23.350;2023-11-21T02:30:22;94706.84;;;3.85;100.00
55424;BME280;41294;42.666;23.350;2023-11-21T02:32:50;94704.94;;;3.89;100.00
55424;BME280;41294;42.666;23.350;2023-11-21T02:35:18;94704.13;;;3.92;100.00
55424;BME280;41294;42.666;23.350;2023-11-21T02:37:46;94707.06;;;3.94;100.00
55424;BME280;41294;42.666;23.350;2023-11-21T02:40:12;94699.31;;;3.91;100.00
55424;BME280;41294;42.666;23.350;2023-11-21T02:42:40;94701.72;;;4.01;100.00
55424;BME280;41294;42.666;23.350;2023-11-21T02:45:07;94707.84;;;3.91;100.00
55424;BME280;41294;42.666;23.350;2023-11-21T02:47:33;94701.84;;;3.94;100.00
55424;BME280;41294;42.666;23.350;2023-11-21T02:49:59;94700.13;;;4.07;99.51
55424;BME280;41294;42.666;23.350;2023-11-21T02:52:24;94704.53;;;3.91;99.62
55424;BME280;41294;42.666;23.350;2023-11-21T02:54:50;94704.66;;;4.03;99.89
55424;BME280;41294;42.666;23.350;2023-11-21T02:57:16;94699.31;;;3.91;99.21
55424;BME280;41294;42.666;23.350;2023-11-21T02:59:42;94707.34;;;3.80;99.96
55424;BME280;41294;42.666;23.350;2023-11-21T03:02:07;94704.94;;;3.89;99.59
55424;BME280;41294;42.666;23.350;2023-11-21T03:04:35;94706.13;;;3.85;99.83
55424;BME280;41294;42.666;23.350;2023-11-21T03:07:01;94699.31;;;3.91;100.00
55424;BME280;41294;42.666;23.350;2023-11-21T03:09:26;94701.03;;;3.78;100.00
55424;BME280;41294;42.666;23.350;2023-11-21T03:11:53;94691.38;;;3.78;100.00
55424;BME280;41294;42.666;23.350;2023-11-21T03:14:18;94705.72;;;3.86;99.82
55424;BME280;41294;42.666;23.350;2023-11-21T03:16:44;94695.72;;;3.85;100.00
55424;BME280;41294;42.666;23.350;2023-11-21T03:19:11;94703.69;;;3.74;100.00
55424;BME280;41294;42.666;23.350;2023-11-21T03:21:36;94705.66;;;3.70;100.00
55424;BME280;41294;42.666;23.350;2023-11-21T03:24:02;94716.28;;;3.79;100.00
55424;BME280;41294;42.666;23.350;2023-11-21T03:26:28;94711.06;;;3.79;100.00
55424;BME280;41294;42.666;23.350;2023-11-21T03:28:54;94709.94;;;4.00;100.00
55424;BME280;41294;42.666;23.350;2023-11-21T03:31:20;94721.22;;;3.93;99.98
55424;BME280;41294;42.666;23.350;2023-11-21T03:33:46;94724.28;;;3.88;100.00
55424;BME280;41294;42.666;23.350;2023-11-21T03:36:12;94714.31;;;3.83;100.00
55424;BME280;41294;42.666;23.350;2023-11-21T03:38:38;94718.94;;;3.95;100.00
55424;BME280;41294;42.666;23.350;2023-11-21T03:41:03;94714.22;;;3.90;100.00
55424;BME280;41294;42.666;23.350;2023-11-21T03:43:29;94709.47;;;3.85;100.00
55424;BME280;41294;42.666;23.350;2023-11-21T03:45:55;94712.47;;;3.84;100.00
55424;BME280;41294;42.666;23.350;2023-11-21T03:48:20;94704.59;;;3.87;100.00
55424;BME280;41294;42.666;23.350;2023-11-21T03:50:46;94701.38;;;3.80;100.00
55424;BME280;41294;42.666;23.350;2023-11-21T03:53:12;94693.19;;;3.81;100.00
55424;BME280;41294;42.666;23.350;2023-11-21T03:55:38;94687.84;;;3.88;100.00
55424;BME280;41294;42.666;23.350;2023-11-21T03:58:03;94687.03;;;3.91;100.00
55424;BME280;41294;42.666;23.350;2023-11-21T04:00:28;94692.78;;;4.02;100.00
55424;BME280;41294;42.666;23.350;2023-11-21T04:02:54;94697.97;;;4.02;100.00
55424;BME280;41294;42.666;23.350;2023-11-21T04:05:20;94694.47;;;3.93;100.00
55424;BME280;41294;42.666;23.350;2023-11-21T04:07:47;94681.44;;;3.93;100.00
55424;BME280;41294;42.666;23.350;2023-11-21T04:10:12;94690.78;;;3.90;100.00
55424;BME280;41294;42.666;23.350;2023-11-21T04:12:38;94683.22;;;3.96;100.00
55424;BME280;41294;42.666;23.350;2023-11-21T04:15:04;94683.28;;;3.92;100.00
55424;BME280;41294;42.666;23.350;2023-11-21T04:17:29;94675.97;;;3.87;100.00
55424;BME280;41294;42.666;23.350;2023-11-21T04:19:56;94687.16;;;3.84;100.00
55424;BME280;41294;42.666;23.350;2023-11-21T04:22:21;94687.09;;;3.88;100.00
55424;BME280;41294;42.666;23.350;2023-11-21T04:24:46;94681.72;;;3.98;100.00
55424;BME280;41294;42.666;23.350;2023-11-21T04:27:12;94684.75;;;3.93;100.00
55424;BME280;41294;42.666;23.350;2023-11-21T04:29:38;94683.97;;;3.96;100.00
55424;BME280;41294;42.666;23.350;2023-11-21T04:32:04;94682.16;;;3.93;100.00
55424;BME280;41294;42.666;23.350;2023-11-21T04:34:29;94678.69;;;4.00;100.00
55424;BME280;41294;42.666;23.350;2023-11-21T04:36:56;94690.19;;;4.02;100.00
55424;BME280;41294;42.666;23.350;2023-11-21T04:39:22;94682.97;;;4.09;100.00
55424;BME280;41294;42.666;23.350;2023-11-21T04:41:47;94679.22;;;3.91;100.00
55424;BME280;41294;42.666;23.350;2023-11-21T04:44:13;94684.75;;;3.93;100.00
55424;BME280;41294;42.666;23.350;2023-11-21T04:46:38;94690.09;;;3.86;100.00
55424;BME280;41294;42.666;23.350;2023-11-21T04:49:04;94680.75;;;3.89;100.00
55424;BME280;41294;42.666;23.350;2023-11-21T04:51:29;94683.97;;;3.96;100.00
55424;BME280;41294;42.666;23.350;2023-11-21T04:53:56;94691.97;;;4.05;100.00
55424;BME280;41294;42.666;23.350;2023-11-21T04:56:21;94692.13;;;3.98;100.00
55424;BME280;41294;42.666;23.350;2023-11-21T04:58:47;94692.56;;;3.93;100.00
55424;BME280;41294;42.666;23.350;2023-11-21T05:01:12;94693.84;;;4.04;100.00
55424;BME280;41294;42.666;23.350;2023-11-21T05:03:38;94687.56;;;4.02;99.89
55424;BME280;41294;42.666;23.350;2023-11-21T05:06:04;94694.31;;;4.00;99.70
55424;BME280;41294;42.666;23.350;2023-11-21T05:08:30;94702.53;;;3.98;100.00
55424;BME280;41294;42.666;23.350;2023-11-21T05:10:56;94710.56;;;4.07;100.00
55424;BME280;41294;42.666;23.350;2023-11-21T05:13:22;94694.09;;;4.10;99.26
55424;BME280;41294;42.666;23.350;2023-11-21T05:15:53;94685.31;;;4.04;99.54
55424;BME280;41294;42.666;23.350;2023-11-21T05:18:21;94683.75;;;4.06;99.85
55424;BME280;41294;42.666;23.350;2023-11-21T05:20:47;94678.28;;;4.01;99.97
55424;BME280;41294;42.666;23.350;2023-11-21T05:23:13;94685.31;;;4.04;100.00
55424;BME280;41294;42.666;23.350;2023-11-21T05:25:38;94676.00;;;4.22;99.76
55424;BME280;41294;42.666;23.350;2023-11-21T05:28:03;94672.69;;;4.22;99.09
55424;BME280;41294;42.666;23.350;2023-11-21T05:30:29;94690.63;;;4.16;99.74
55424;BME280;41294;42.666;23.350;2023-11-21T05:32:55;94685.69;;;4.22;99.29
55424;BME280;41294;42.666;23.350;2023-11-21T05:35:20;94687.16;;;4.23;99.70
55424;BME280;41294;42.666;23.350;2023-11-21T05:37:46;94704.28;;;4.24;99.38
55424;BME280;41294;42.666;23.350;2023-11-21T05:40:12;94690.84;;;4.25;99.69
55424;BME280;41294;42.666;23.350;2023-11-21T05:42:39;94696.31;;;4.31;99.66
55424;BME280;41294;42.666;23.350;2023-11-21T05:45:05;94694.53;;;4.08;100.00
55424;BME280;41294;42.666;23.350;2023-11-21T05:47:40;94705.13;;;4.17;100.00
55424;BME280;41294;42.666;23.350;2023-11-21T05:50:07;94702.13;;;4.19;100.00
55424;BME280;41294;42.666;23.350;2023-11-21T05:52:36;94693.03;;;4.27;100.00
55424;BME280;41294;42.666;23.350;2023-11-21T05:55:04;94676.81;;;4.19;100.00
55424;BME280;41294;42.666;23.350;2023-11-21T05:57:39;94694.66;;;4.21;100.00
55424;BME280;41294;42.666;23.350;2023-11-21T06:00:14;94697.97;;;4.41;100.00
55424;BME280;41294;42.666;23.350;2023-11-21T06:02:43;94699.28;;;4.49;100.00
55424;BME280;41294;42.666;23.350;2023-11-21T06:05:10;94692.47;;;4.55;100.00
55424;BME280;41294;42.666;23.350;2023-11-21T06:07:37;94693.06;;;4.62;99.89
55424;BME280;41294;42.666;23.350;2023-11-21T06:10:03;94694.28;;;4.74;99.29
55424;BME280;41294;42.666;23.350;2023-11-21T06:12:32;94697.63;;;4.74;99.07
55424;BME280;41294;42.666;23.350;2023-11-21T06:15:04;94701.97;;;4.96;98.52
55424;BME280;41294;42.666;23.350;2023-11-21T06:17:31;94704.09;;;5.17;97.20
55424;BME280;41294;42.666;23.350;2023-11-21T06:19:57;94699.84;;;5.23;97.11
55424;BME280;41294;42.666;23.350;2023-11-21T06:22:22;94712.06;;;5.42;97.16
55424;BME280;41294;42.666;23.350;2023-11-21T06:24:47;94716.28;;;5.68;96.02
55424;BME280;41294;42.666;23.350;2023-11-21T06:27:13;94708.97;;;5.47;95.33
55424;BME280;41294;42.666;23.350;2023-11-21T06:29:38;94714.88;;;5.19;96.79
55424;BME280;41294;42.666;23.350;2023-11-21T06:32:04;94716.25;;;5.24;98.94
55424;BME280;41294;42.666;23.350;2023-11-21T06:34:30;94721.06;;;5.57;96.27
55424;BME280;41294;42.666;23.350;2023-11-21T06:36:56;94714.94;;;5.00;98.92
55424;BME280;41294;42.666;23.350;2023-11-21T06:39:21;94719.66;;;5.21;99.58
55424;BME280;41294;42.666;23.350;2023-11-21T06:41:49;94730.50;;;5.83;96.36
55424;BME280;41294;42.666;23.350;2023-11-21T06:44:15;94724.94;;;5.81;95.22
55424;BME280;41294;42.666;23.350;2023-11-21T06:46:40;94730.13;;;5.97;95.60
55424;BME280;41294;42.666;23.350;2023-11-21T06:49:08;94727.72;;;7.09;93.17
55424;BME280;41294;42.666;23.350;2023-11-21T06:51:33;94726.47;;;7.72;88.17
55424;BME280;41294;42.666;23.350;2023-11-21T06:53:59;94725.00;;;6.87;88.88
55424;BME280;41294;42.666;23.350;2023-11-21T06:56:24;94726.00;;;7.52;88.79
55424;BME280;41294;42.666;23.350;2023-11-21T06:58:50;94725.75;;;7.71;84.68
55424;BME280;41294;42.666;23.350;2023-11-21T07:01:19;94733.03;;;8.22;82.49
55424;BME280;41294;42.666;23.350;2023-11-21T07:03:44;94740.94;;;8.31;82.00
55424;BME280;41294;42.666;23.350;2023-11-21T07:06:10;94731.09;;;8.02;82.70
55424;BME280;41294;42.666;23.350;2023-11-21T07:08:36;94732.19;;;8.25;82.17
55424;BME280;41294;42.666;23.350;2023-11-21T07:11:03;94728.84;;;8.77;80.45
55424;BME280;41294;42.666;23.350;2023-11-21T07:13:29;94720.72;;;8.84;78.52
55424;BME280;41294;42.666;23.350;2023-11-21T07:15:54;94716.75;;;8.79;79.00
55424;BME280;41294;42.666;23.350;2023-11-21T07:18:20;94725.44;;;8.67;78.48
55424;BME280;41294;42.666;23.350;2023-11-21T07:20:45;94718.41;;;8.55;78.35
55424;BME280;41294;42.666;23.350;2023-11-21T07:23:11;94718.53;;;8.91;78.12
55424;BME280;41294;42.666;23.350;2023-11-21T07:25:36;94720.78;;;9.41;76.38
55424;BME280;41294;42.666;23.350;2023-11-21T07:28:02;94720.41;;;9.12;75.68
55424;BME280;41294;42.666;23.350;2023-11-21T07:30:27;94716.50;;;8.86;77.54
55424;BME280;41294;42.666;23.350;2023-11-21T07:32:53;94729.94;;;9.27;76.60
55424;BME280;41294;42.666;23.350;2023-11-21T07:35:18;94720.34;;;9.42;75.12
55424;BME280;41294;42.666;23.350;2023-11-21T07:41:06;94720.94;;;9.46;74.56
55424;BME280;41294;42.666;23.350;2023-11-21T07:43:35;94711.41;;;9.31;75.23
55424;BME280;41294;42.666;23.350;2023-11-21T07:46:04;94718.44;;;9.34;75.67
55424;BME280;41294;42.666;23.350;2023-11-21T07:48:30;94714.53;;;8.99;76.62
55424;BME280;41294;42.666;23.350;2023-11-21T07:50:57;94721.06;;;8.43;79.55
55424;BME280;41294;42.666;23.350;2023-11-21T07:53:26;94711.16;;;8.68;78.86
55424;BME280;41294;42.666;23.350;2023-11-21T07:55:54;94706.13;;;8.83;77.86
55424;BME280;41294;42.666;23.350;2023-11-21T07:58:20;94709.72;;;9.06;76.69
55424;BME280;41294;42.666;23.350;2023-11-21T08:00:45;94704.00;;;8.69;77.95
55424;BME280;41294;42.666;23.350;2023-11-21T08:03:11;94701.09;;;8.36;79.40
55424;BME280;41294;42.666;23.350;2023-11-21T08:05:37;94697.09;;;8.53;80.25
55424;BME280;41294;42.666;23.350;2023-11-21T08:08:02;94689.72;;;9.00;77.85
55424;BME280;41294;42.666;23.350;2023-11-21T08:10:28;94687.91;;;8.79;78.09
55424;BME280;41294;42.666;23.350;2023-11-21T08:12:54;94686.38;;;8.99;77.54
55424;BME280;41294;42.666;23.350;2023-11-21T08:15:20;94686.44;;;8.78;78.17
55424;BME280;41294;42.666;23.350;2023-11-21T08:17:46;94688.56;;;9.10;77.39
55424;BME280;41294;42.666;23.350;2023-11-21T08:20:12;94696.59;;;9.73;75.25
55424;BME280;41294;42.666;23.350;2023-11-21T08:22:37;94696.63;;;10.17;73.50
55424;BME280;41294;42.666;23.350;2023-11-21T08:25:06;94704.44;;;10.71;72.65
55424;BME280;41294;42.666;23.350;2023-11-21T08:27:33;94699.84;;;10.80;70.53
55424;BME280;41294;42.666;23.350;2023-11-21T08:30:00;94692.88;;;10.77;71.34
55424;BME280;41294;42.666;23.350;2023-11-21T08:32:25;94695.44;;;10.36;71.78
55424;BME280;41294;42.666;23.350;2023-11-21T08:34:51;94697.97;;;10.81;71.00
55424;BME280;41294;42.666;23.350;2023-11-21T08:37:17;94702.81;;;10.73;69.99
55424;BME280;41294;42.666;23.350;2023-11-21T08:39:45;94696.03;;;11.23;70.15
55424;BME280;41294;42.666;23.350;2023-11-21T08:42:11;94679.84;;;11.39;68.19
55424;BME280;41294;42.666;23.350;2023-11-21T08:44:36;94691.94;;;10.39;71.43
55424;BME280;41294;42.666;23.350;2023-11-21T08:47:02;94702.88;;;10.97;70.42
55424;BME280;41294;42.666;23.350;2023-11-21T08:49:27;94694.09;;;11.00;69.58
55424;BME280;41294;42.666;23.350;2023-11-21T08:51:54;94683.88;;;10.93;69.98
55424;BME280;41294;42.666;23.350;2023-11-21T08:54:21;94680.94;;;11.23;69.74
55424;BME280;41294;42.666;23.350;2023-11-21T08:56:46;94687.50;;;11.60;67.33
55424;BME280;41294;42.666;23.350;2023-11-21T08:59:13;94673.59;;;11.04;68.64
55424;BME280;41294;42.666;23.350;2023-11-21T09:01:39;94670.72;;;10.52;70.05
55424;BME280;41294;42.666;23.350;2023-11-21T09:04:06;94666.31;;;10.49;70.86
55424;BME280;41294;42.666;23.350;2023-11-21T09:06:31;94661.66;;;10.53;71.02
55424;BME280;41294;42.666;23.350;2023-11-21T09:08:57;94649.44;;;9.60;74.23
55424;BME280;41294;42.666;23.350;2023-11-21T09:11:23;94641.19;;;9.13;77.93
55424;BME280;41294;42.666;23.350;2023-11-21T09:13:50;94632.00;;;9.18;77.78
55424;BME280;41294;42.666;23.350;2023-11-21T09:16:16;94619.63;;;8.70;80.51
55424;BME280;41294;42.666;23.350;2023-11-21T09:18:42;94623.00;;;8.40;82.48
55424;BME280;41294;42.666;23.350;2023-11-21T09:21:08;94624.88;;;8.10;84.37
55424;BME280;41294;42.666;23.350;2023-11-21T09:23:35;94625.44;;;8.13;84.50
55424;BME280;41294;42.666;23.350;2023-11-21T09:26:00;94611.09;;;8.48;83.48
55424;BME280;41294;42.666;23.350;2023-11-21T09:28:26;94604.44;;;8.65;81.83
55424;BME280;41294;42.666;23.350;2023-11-21T09:30:53;94591.94;;;8.69;82.35
55424;BME280;41294;42.666;23.350;2023-11-21T09:33:18;94590.75;;;9.27;79.99
55424;BME280;41294;42.666;23.350;2023-11-21T09:35:44;94579.59;;;8.97;80.60
55424;BME280;41294;42.666;23.350;2023-11-21T09:38:09;94567.50;;;8.81;81.90
55424;BME280;41294;42.666;23.350;2023-11-21T09:40:36;94569.56;;;9.13;80.15
55424;BME280;41294;42.666;23.350;2023-11-21T09:43:08;94565.50;;;9.57;78.44
55424;BME280;41294;42.666;23.350;2023-11-21T09:45:45;94560.09;;;9.42;78.62
55424;BME280;41294;42.666;23.350;2023-11-21T09:48:11;94565.00;;;9.94;77.97
55424;BME280;41294;42.666;23.350;2023-11-21T09:50:39;94554.94;;;10.01;75.86
55424;BME280;41294;42.666;23.350;2023-11-21T09:53:16;94554.94;;;10.52;74.86
55424;BME280;41294;42.666;23.350;2023-11-21T09:55:44;94536.91;;;9.59;76.53
55424;BME280;41294;42.666;23.350;2023-11-21T09:58:11;94517.88;;;8.74;80.67
55424;BME280;41294;42.666;23.350;2023-11-21T10:00:49;94516.91;;;9.07;79.91
55424;BME280;41294;42.666;23.350;2023-11-21T10:03:17;94520.13;;;9.11;80.86
55424;BME280;41294;42.666;23.350;2023-11-21T10:05:44;94526.19;;;9.89;77.87
55424;BME280;41294;42.666;23.350;2023-11-21T10:08:11;94520.34;;;10.35;75.87
55424;BME280;41294;42.666;23.350;2023-11-21T10:10:43;94506.88;;;11.12;72.98
55424;BME280;41294;42.666;23.350;2023-11-21T10:13:12;94519.19;;;12.11;69.49
55424;BME280;41294;42.666;23.350;2023-11-21T10:15:38;94509.44;;;12.85;66.07
55424;BME280;41294;42.666;23.350;2023-11-21T10:18:04;94502.53;;;13.27;64.31
55424;BME280;41294;42.666;23.350;2023-11-21T10:20:32;94507.59;;;13.56;62.17
55424;BME280;41294;42.666;23.350;2023-11-21T10:23:03;94498.50;;;12.58;63.84
55424;BME280;41294;42.666;23.350;2023-11-21T10:25:29;94491.13;;;12.28;65.14
55424;BME280;41294;42.666;23.350;2023-11-21T10:28:01;94489.09;;;11.22;68.98
55424;BME280;41294;42.666;23.350;2023-11-21T10:30:34;94483.53;;;11.57;68.53
55424;BME280;41294;42.666;23.350;2023-11-21T10:33:02;94489.81;;;11.37;68.05
55424;BME280;41294;42.666;23.350;2023-11-21T10:35:48;94485.72;;;11.73;66.01
55424;BME280;41294;42.666;23.350;2023-11-21T10:38:19;94487.16;;;11.60;66.48
55424;BME280;41294;42.666;23.350;2023-11-21T10:40:48;94477.69;;;12.11;65.88
55424;BME280;41294;42.666;23.350;2023-11-21T10:43:14;94465.72;;;12.30;64.77
55424;BME280;41294;42.666;23.350;2023-11-21T10:45:41;94466.56;;;12.56;64.32
55424;BME280;41294;42.666;23.350;2023-11-21T10:48:08;94475.63;;;13.09;62.03
55424;BME280;41294;42.666;23.350;2023-11-21T10:50:37;94465.19;;;13.20;61.24
55424;BME280;41294;42.666;23.350;2023-11-21T10:53:05;94459.16;;;12.60;62.04
55424;BME280;41294;42.666;23.350;2023-11-21T10:55:31;94454.47;;;12.15;64.09
55424;BME280;41294;42.666;23.350;2023-11-21T10:58:04;94451.91;;;11.72;66.06
55424;BME280;41294;42.666;23.350;2023-11-21T11:00:33;94447.47;;;12.12;65.36
55424;BME280;41294;42.666;23.350;2023-11-21T11:02:59;94445.59;;;12.32;64.23
55424;BME280;41294;42.666;23.350;2023-11-21T11:05:27;94449.16;;;11.95;65.07
55424;BME280;41294;42.666;23.350;2023-11-21T11:08:08;94444.88;;;11.40;66.18
55424;BME280;41294;42.666;23.350;2023-11-21T11:10:37;94441.31;;;11.14;68.18
55424;BME280;41294;42.666;23.350;2023-11-21T11:13:06;94446.41;;;11.46;67.29
55424;BME280;41294;42.666;23.350;2023-11-21T11:15:32;94437.97;;;11.71;66.28
55424;BME280;41294;42.666;23.350;2023-11-21T11:17:59;94432.94;;;12.02;65.07
55424;BME280;41294;42.666;23.350;2023-11-21T11:20:35;94429.97;;;11.80;65.76
55424;BME280;41294;42.666;23.350;2023-11-21T11:23:27;94425.94;;;11.85;64.62
55424;BME280;41294;42.666;23.350;2023-11-21T11:27:11;94420.31;;;11.20;67.47
55424;BME280;41294;42.666;23.350;2023-11-21T11:31:51;94408.06;;;11.45;66.41
55424;BME280;41294;42.666;23.350;2023-11-21T11:34:29;94405.44;;;11.17;66.95
55424;BME280;41294;42.666;23.350;2023-11-21T11:39:42;94401.88;;;11.48;66.13
55424;BME280;41294;42.666;23.350;2023-11-21T11:42:16;94399.88;;;11.72;65.36
55424;BME280;41294;42.666;23.350;2023-11-21T11:47:26;94396.59;;;11.92;65.50
55424;BME280;41294;42.666;23.350;2023-11-21T11:50:10;94402.44;;;12.16;65.25
55424;BME280;41294;42.666;23.350;2023-11-21T11:52:54;94413.94;;;12.32;65.23
55424;BME280;41294;42.666;23.350;2023-11-21T11:55:21;94418.31;;;12.35;65.41
55424;BME280;41294;42.666;23.350;2023-11-21T12:00:21;94414.31;;;12.26;66.85
55424;BME280;41294;42.666;23.350;2023-11-21T12:02:58;94403.78;;;12.26;66.96
55424;BME280;41294;42.666;23.350;2023-11-21T12:05:25;94404.53;;;12.12;67.43
55424;BME280;41294;42.666;23.350;2023-11-21T12:07:55;94406.00;;;11.98;68.33
55424;BME280;41294;42.666;23.350;2023-11-21T12:10:28;94405.09;;;12.01;68.67
55424;BME280;41294;42.666;23.350;2023-11-21T12:12:58;94393.94;;;11.92;69.65
55424;BME280;41294;42.666;23.350;2023-11-21T12:15:24;94412.09;;;12.04;70.06
55424;BME280;41294;42.666;23.350;2023-11-21T12:17:51;94407.47;;;11.99;71.51
55424;BME280;41294;42.666;23.350;2023-11-21T12:20:24;94408.94;;;11.86;72.77
55424;BME280;41294;42.666;23.350;2023-11-21T12:22:51;94417.50;;;11.81;73.73
55424;BME280;41294;42.666;23.350;2023-11-21T12:25:19;94405.53;;;11.65;73.43
55424;BME280;41294;42.666;23.350;2023-11-21T12:27:47;94405.69;;;11.47;75.64
55424;BME280;41294;42.666;23.350;2023-11-21T12:30:15;94398.00;;;11.58;75.76
55424;BME280;41294;42.666;23.350;2023-11-21T12:32:43;94401.19;;;11.62;75.00
55424;BME280;41294;42.666;23.350;2023-11-21T12:35:09;94412.16;;;11.46;76.56
55424;BME280;41294;42.666;23.350;2023-11-21T12:37:40;94407.31;;;11.31;77.12
55424;BME280;41294;42.666;23.350;2023-11-21T12:40:06;94399.06;;;11.38;77.07
55424;BME280;41294;42.666;23.350;2023-11-21T12:42:39;94409.34;;;11.36;77.32
55424;BME280;41294;42.666;23.350;2023-11-21T12:47:43;94409.50;;;11.32;78.30
55424;BME280;41294;42.666;23.350;2023-11-21T12:50:09;94399.97;;;11.35;78.28
55424;BME280;41294;42.666;23.350;2023-11-21T12:52:44;94390.31;;;11.03;79.20
55424;BME280;41294;42.666;23.350;2023-11-21T12:55:22;94383.41;;;10.91;79.21
55424;BME280;41294;42.666;23.350;2023-11-21T12:57:53;94380.50;;;10.51;80.91
55424;BME280;41294;42.666;23.350;2023-11-21T13:00:32;94377.41;;;10.15;83.51
55424;BME280;41294;42.666;23.350;2023-11-21T13:02:59;94379.53;;;9.93;83.79
55424;BME280;41294;42.666;23.350;2023-11-21T13:05:38;94375.53;;;10.30;83.98
55424;BME280;41294;42.666;23.350;2023-11-21T13:08:06;94361.84;;;10.63;82.97
55424;BME280;41294;42.666;23.350;2023-11-21T13:10:34;94355.44;;;10.79;81.08
55424;BME280;41294;42.666;23.350;2023-11-21T13:13:07;94371.06;;;10.97;79.64